createdAt,value
2023-07-24T00:00:15.241Z,960.52
2023-07-24T00:01:15.261Z,960.56
2023-07-24T00:02:15.162Z,960.48
2023-07-24T00:03:15.189Z,960.48
2023-07-24T00:04:15.148Z,960.57
2023-07-24T00:05:15.163Z,960.51
2023-07-24T00:06:15.071Z,960.56
2023-07-24T00:07:15.050Z,960.53
2023-07-24T00:08:15.029Z,960.53
2023-07-24T00:09:15.042Z,960.43
2023-07-24T00:10:14.991Z,960.48
2023-07-24T00:11:14.961Z,960.48
2023-07-24T00:12:14.938Z,960.45
2023-07-24T00:13:14.923Z,960.45
2023-07-24T00:14:14.926Z,960.49
2023-07-24T00:15:14.872Z,960.39
2023-07-24T00:16:14.846Z,960.43
2023-07-24T00:17:14.903Z,960.41
2023-07-24T00:18:14.833Z,960.41
2023-07-24T00:19:14.812Z,960.34
2023-07-24T00:20:14.756Z,960.45
2023-07-24T00:21:14.741Z,960.42
2023-07-24T00:22:14.711Z,960.37
2023-07-24T00:23:14.736Z,960.36
2023-07-24T00:24:14.690Z,960.33
2023-07-24T00:25:14.643Z,960.38
2023-07-24T00:26:14.623Z,960.34
2023-07-24T00:27:14.607Z,960.34
2023-07-24T00:28:14.618Z,960.36
2023-07-24T00:29:14.569Z,960.24
2023-07-24T00:30:14.539Z,960.25
2023-07-24T00:31:14.523Z,960.19
2023-07-24T00:32:14.525Z,960.19
2023-07-24T00:33:14.511Z,960.20
2023-07-24T00:34:14.455Z,960.18
2023-07-24T00:35:14.430Z,960.20
2023-07-24T00:36:14.405Z,960.22
2023-07-24T00:37:14.415Z,960.25
2023-07-24T00:38:14.360Z,960.31
2023-07-24T00:39:14.339Z,960.20
2023-07-24T00:40:14.338Z,960.27
2023-07-24T00:41:14.306Z,960.32
2023-07-24T00:42:14.307Z,960.31
2023-07-24T00:43:14.259Z,960.35
2023-07-24T00:44:14.237Z,960.27
2023-07-24T00:45:14.214Z,960.34
2023-07-24T00:46:14.250Z,960.30
2023-07-24T00:47:14.214Z,960.28
2023-07-24T00:48:14.148Z,960.25
2023-07-24T00:49:14.134Z,960.26
2023-07-24T00:50:14.111Z,960.29
2023-07-24T00:51:14.109Z,960.27
2023-07-24T00:52:14.066Z,960.27
2023-07-24T00:53:14.042Z,960.28
2023-07-24T00:54:14.024Z,960.32
2023-07-24T00:55:14.025Z,960.26
2023-07-24T00:56:14.028Z,960.25
2023-07-24T00:57:13.945Z,960.22
2023-07-24T00:58:13.931Z,960.30
2023-07-24T00:59:13.905Z,960.23
2023-07-24T01:00:13.912Z,960.21
2023-07-24T01:01:13.963Z,960.20
2023-07-24T01:02:13.835Z,960.23
2023-07-24T01:03:13.810Z,960.19
2023-07-24T01:04:13.793Z,960.18
2023-07-24T01:05:13.856Z,960.29
2023-07-24T01:06:13.748Z,960.27
2023-07-24T01:07:13.726Z,960.28
2023-07-24T01:08:13.708Z,960.25
2023-07-24T01:09:13.717Z,960.26
2023-07-24T01:10:13.713Z,960.21
2023-07-24T01:11:13.629Z,960.19
2023-07-24T01:12:13.612Z,960.17
2023-07-24T01:13:13.594Z,960.17
2023-07-24T01:14:13.609Z,960.12
2023-07-24T01:15:13.572Z,960.16
2023-07-24T01:16:13.579Z,960.10
2023-07-24T01:17:13.506Z,960.08
2023-07-24T01:18:13.485Z,960.09
2023-07-24T01:19:13.501Z,960.06
2023-07-24T01:20:13.445Z,960.08
2023-07-24T01:21:13.424Z,960.10
2023-07-24T01:22:13.404Z,960.09
2023-07-24T01:23:13.407Z,960.08
2023-07-24T01:24:13.444Z,960.08
2023-07-24T01:25:13.337Z,960.06
2023-07-24T01:26:13.306Z,960.08
2023-07-24T01:27:13.282Z,960.07
2023-07-24T01:28:13.293Z,960.06
2023-07-24T01:29:13.240Z,960.03
2023-07-24T01:30:13.212Z,960.13
2023-07-24T01:31:13.193Z,960.12
2023-07-24T01:32:13.222Z,960.20
2023-07-24T01:33:13.177Z,960.13
2023-07-24T01:34:13.124Z,960.12
2023-07-24T01:35:13.131Z,960.15
2023-07-24T01:36:13.088Z,960.13
2023-07-24T01:37:13.089Z,960.17
2023-07-24T01:38:13.075Z,960.14
2023-07-24T01:39:13.015Z,960.18
2023-07-24T01:40:12.999Z,960.14
2023-07-24T01:41:12.966Z,960.20
2023-07-24T01:42:12.962Z,960.18
2023-07-24T01:43:13.928Z,960.14
2023-07-24T01:44:12.904Z,960.20
2023-07-24T01:45:12.877Z,960.15
2023-07-24T01:46:12.908Z,960.15
2023-07-24T01:47:12.886Z,960.16
2023-07-24T01:48:12.870Z,960.07
2023-07-24T01:49:12.789Z,960.10
2023-07-24T01:50:12.772Z,960.08
2023-07-24T01:51:12.775Z,960.09
2023-07-24T01:52:12.752Z,959.99
2023-07-24T01:53:12.718Z,960.05
2023-07-24T01:54:12.681Z,960.00
2023-07-24T01:55:12.667Z,959.97
2023-07-24T01:56:12.671Z,959.98
2023-07-24T01:57:12.622Z,959.98
2023-07-24T01:58:12.596Z,959.95
2023-07-24T01:59:12.576Z,959.93
2023-07-24T02:00:12.563Z,960.02
2023-07-24T02:01:12.566Z,959.91
2023-07-24T02:02:13.519Z,959.97
2023-07-24T02:03:12.610Z,959.97
2023-07-24T02:04:12.475Z,959.97
2023-07-24T02:05:12.471Z,959.90
2023-07-24T02:06:12.453Z,959.95
2023-07-24T02:07:12.396Z,959.84
2023-07-24T02:08:12.372Z,959.84
2023-07-24T02:09:12.350Z,959.87
2023-07-24T02:10:12.366Z,959.87
2023-07-24T02:11:12.304Z,959.88
2023-07-24T02:12:12.285Z,959.94
2023-07-24T02:13:12.265Z,960.01
2023-07-24T02:14:12.271Z,959.98
2023-07-24T02:15:12.256Z,959.91
2023-07-24T02:16:12.234Z,959.90
2023-07-24T02:17:12.167Z,959.86
2023-07-24T02:18:12.144Z,959.91
2023-07-24T02:19:12.202Z,959.90
2023-07-24T02:20:12.105Z,959.85
2023-07-24T02:21:12.078Z,959.86
2023-07-24T02:22:12.056Z,959.84
2023-07-24T02:23:12.028Z,959.81
2023-07-24T02:24:12.088Z,959.84
2023-07-24T02:25:11.983Z,959.77
2023-07-24T02:26:11.990Z,959.82
2023-07-24T02:27:11.944Z,959.77
2023-07-24T02:28:11.949Z,959.85
2023-07-24T02:29:11.922Z,959.86
2023-07-24T02:30:11.882Z,959.84
2023-07-24T02:31:11.877Z,959.78
2023-07-24T02:32:11.830Z,959.81
2023-07-24T02:33:11.834Z,959.79
2023-07-24T02:34:11.786Z,959.80
2023-07-24T02:35:11.768Z,959.77
2023-07-24T02:36:11.741Z,959.79
2023-07-24T02:37:11.716Z,959.82
2023-07-24T02:38:11.736Z,959.80
2023-07-24T02:39:11.681Z,959.88
2023-07-24T02:40:11.649Z,959.73
2023-07-24T02:41:11.632Z,959.83
2023-07-24T02:42:11.639Z,959.86
2023-07-24T02:43:11.584Z,959.89
2023-07-24T02:44:11.568Z,959.85
2023-07-24T02:45:11.565Z,959.84
2023-07-24T02:46:11.548Z,959.89
2023-07-24T02:47:11.519Z,959.90
2023-07-24T02:48:11.468Z,959.89
2023-07-24T02:49:11.448Z,959.88
2023-07-24T02:50:11.430Z,959.89
2023-07-24T02:51:11.402Z,959.83
2023-07-24T02:52:11.408Z,959.89
2023-07-24T02:53:11.385Z,959.90
2023-07-24T02:54:11.346Z,959.92
2023-07-24T02:55:11.317Z,959.87
2023-07-24T02:56:11.316Z,959.85
2023-07-24T02:57:11.298Z,959.84
2023-07-24T02:58:11.241Z,959.84
2023-07-24T02:59:11.227Z,959.85
2023-07-24T03:00:11.220Z,959.87
2023-07-24T03:01:11.240Z,959.93
2023-07-24T03:02:11.202Z,959.83
2023-07-24T03:03:11.289Z,959.85
2023-07-24T03:04:11.124Z,959.89
2023-07-24T03:05:11.117Z,959.77
2023-07-24T03:06:11.106Z,959.83
2023-07-24T03:07:11.045Z,959.79
2023-07-24T03:08:11.021Z,959.85
2023-07-24T03:09:10.999Z,959.78
2023-07-24T03:10:11.035Z,959.82
2023-07-24T03:11:10.952Z,959.79
2023-07-24T03:12:10.949Z,959.80
2023-07-24T03:13:10.912Z,959.74
2023-07-24T03:14:10.890Z,959.72
2023-07-24T03:15:10.899Z,959.67
2023-07-24T03:16:10.888Z,959.70
2023-07-24T03:17:10.817Z,959.69
2023-07-24T03:18:10.801Z,959.71
2023-07-24T03:19:10.813Z,959.69
2023-07-24T03:20:10.789Z,959.69
2023-07-24T03:21:10.727Z,959.71
2023-07-24T03:22:10.705Z,959.70
2023-07-24T03:23:10.685Z,959.74
2023-07-24T03:24:10.694Z,959.72
2023-07-24T03:25:10.637Z,959.68
2023-07-24T03:26:10.620Z,959.70
2023-07-24T03:27:10.591Z,959.68
2023-07-24T03:28:10.574Z,959.59
2023-07-24T03:29:10.573Z,959.55
2023-07-24T03:30:10.537Z,959.53
2023-07-24T03:31:10.592Z,959.55
2023-07-24T03:32:10.477Z,959.51
2023-07-24T03:33:10.490Z,959.57
2023-07-24T03:34:10.464Z,959.52
2023-07-24T03:35:10.422Z,959.54
2023-07-24T03:36:10.395Z,959.55
2023-07-24T03:37:10.372Z,959.54
2023-07-24T03:38:10.383Z,959.55
2023-07-24T03:39:10.323Z,959.54
2023-07-24T03:40:10.350Z,959.48
2023-07-24T03:41:10.279Z,959.42
2023-07-24T03:42:10.259Z,959.49
2023-07-24T03:43:10.266Z,959.42
2023-07-24T03:44:10.232Z,959.51
2023-07-24T03:45:10.193Z,959.51
2023-07-24T03:46:10.167Z,959.44
2023-07-24T03:47:10.228Z,959.46
2023-07-24T03:48:10.240Z,959.45
2023-07-24T03:49:10.100Z,959.46
2023-07-24T03:50:10.096Z,959.45
2023-07-24T03:51:10.057Z,959.44
2023-07-24T03:52:10.065Z,959.46
2023-07-24T03:53:10.004Z,959.47
2023-07-24T03:54:09.986Z,959.47
2023-07-24T03:55:09.993Z,959.48
2023-07-24T03:56:09.936Z,959.49
2023-07-24T03:57:09.938Z,959.49
2023-07-24T03:58:09.887Z,959.50
2023-07-24T03:59:09.885Z,959.46
2023-07-24T04:00:09.848Z,959.52
2023-07-24T04:01:09.905Z,959.43
2023-07-24T04:02:10.784Z,959.45
2023-07-24T04:03:10.832Z,959.45
2023-07-24T04:04:09.757Z,959.33
2023-07-24T04:05:09.735Z,959.35
2023-07-24T04:06:09.746Z,959.35
2023-07-24T04:07:09.688Z,959.33
2023-07-24T04:08:09.661Z,959.34
2023-07-24T04:09:09.643Z,959.29
2023-07-24T04:10:09.676Z,959.25
2023-07-24T04:11:09.634Z,959.17
2023-07-24T04:12:09.613Z,959.09
2023-07-24T04:13:09.607Z,959.11
2023-07-24T04:14:09.542Z,959.14
2023-07-24T04:15:09.621Z,959.06
2023-07-24T04:16:09.566Z,959.10
2023-07-24T04:17:09.507Z,959.00
2023-07-24T04:18:09.511Z,959.09
2023-07-24T04:19:09.431Z,959.02
2023-07-24T04:20:09.441Z,959.07
2023-07-24T04:21:09.389Z,959.04
2023-07-24T04:22:09.368Z,959.14
2023-07-24T04:23:09.347Z,959.06
2023-07-24T04:24:09.353Z,959.05
2023-07-24T04:25:09.342Z,959.09
2023-07-24T04:26:09.282Z,959.04
2023-07-24T04:27:09.260Z,959.01
2023-07-24T04:28:09.241Z,958.98
2023-07-24T04:29:09.324Z,958.96
2023-07-24T04:30:09.232Z,958.92
2023-07-24T04:31:09.253Z,958.87
2023-07-24T04:32:09.160Z,958.81
2023-07-24T04:33:09.145Z,958.84
2023-07-24T04:34:09.148Z,958.86
2023-07-24T04:35:09.100Z,958.78
2023-07-24T04:36:09.082Z,958.91
2023-07-24T04:37:09.069Z,958.85
2023-07-24T04:38:09.069Z,958.92
2023-07-24T04:39:09.052Z,958.95
2023-07-24T04:40:09.003Z,958.90
2023-07-24T04:41:08.984Z,958.89
2023-07-24T04:42:08.963Z,958.96
2023-07-24T04:43:09.003Z,958.95
2023-07-24T04:44:08.928Z,958.99
2023-07-24T04:45:08.903Z,958.94
2023-07-24T04:46:08.895Z,958.97
2023-07-24T04:47:08.868Z,959.01
2023-07-24T04:48:08.922Z,958.99
2023-07-24T04:49:08.825Z,958.97
2023-07-24T04:50:08.807Z,958.95
2023-07-24T04:51:08.787Z,958.93
2023-07-24T04:52:08.793Z,958.91
2023-07-24T04:53:08.770Z,958.87
2023-07-24T04:54:08.735Z,958.82
2023-07-24T04:55:08.695Z,958.83
2023-07-24T04:56:08.675Z,958.73
2023-07-24T04:57:08.683Z,958.78
2023-07-24T04:58:08.636Z,958.77
2023-07-24T04:59:08.616Z,958.78
2023-07-24T05:00:08.593Z,958.79
2023-07-24T05:01:08.590Z,958.77
2023-07-24T05:02:08.615Z,958.87
2023-07-24T05:03:08.574Z,958.88
2023-07-24T05:04:08.562Z,958.65
2023-07-24T05:05:08.497Z,958.65
2023-07-24T05:06:08.503Z,958.72
2023-07-24T05:07:08.484Z,958.70
2023-07-24T05:08:08.432Z,958.73
2023-07-24T05:09:08.413Z,958.64
2023-07-24T05:10:08.411Z,958.60
2023-07-24T05:11:08.403Z,958.65
2023-07-24T05:12:08.352Z,958.70
2023-07-24T05:13:08.355Z,958.57
2023-07-24T05:14:08.313Z,958.63
2023-07-24T05:15:08.292Z,958.72
2023-07-24T05:16:08.329Z,958.65
2023-07-24T05:17:08.255Z,958.61
2023-07-24T05:18:08.234Z,958.67
2023-07-24T05:19:08.223Z,958.67
2023-07-24T05:20:08.223Z,958.68
2023-07-24T05:21:08.211Z,958.70
2023-07-24T05:22:08.157Z,958.69
2023-07-24T05:23:08.133Z,958.76
2023-07-24T05:24:08.116Z,958.69
2023-07-24T05:25:08.122Z,958.75
2023-07-24T05:26:08.078Z,958.72
2023-07-24T05:27:08.056Z,958.73
2023-07-24T05:28:08.042Z,958.73
2023-07-24T05:29:08.013Z,958.66
2023-07-24T05:30:08.028Z,958.63
2023-07-24T05:31:07.974Z,958.57
2023-07-24T05:32:07.959Z,958.60
2023-07-24T05:33:07.986Z,958.60
2023-07-24T05:34:08.953Z,958.64
2023-07-24T05:35:07.917Z,958.60
2023-07-24T05:36:07.873Z,958.62
2023-07-24T05:37:07.849Z,958.55
2023-07-24T05:38:07.837Z,958.62
2023-07-24T05:39:07.836Z,958.67
2023-07-24T05:40:07.782Z,958.59
2023-07-24T05:41:07.760Z,958.64
2023-07-24T05:42:07.741Z,958.62
2023-07-24T05:43:07.760Z,958.69
2023-07-24T05:44:07.754Z,958.66
2023-07-24T05:45:07.688Z,958.63
2023-07-24T05:46:07.674Z,958.59
2023-07-24T05:47:07.648Z,958.61
2023-07-24T05:48:07.681Z,958.54
2023-07-24T05:49:07.597Z,958.59
2023-07-24T05:50:07.572Z,958.57
2023-07-24T05:51:07.558Z,958.65
2023-07-24T05:52:07.536Z,958.59
2023-07-24T05:53:07.544Z,958.60
2023-07-24T05:54:07.493Z,958.58
2023-07-24T05:55:07.499Z,958.59
2023-07-24T05:56:07.456Z,958.52
2023-07-24T05:57:07.491Z,958.44
2023-07-24T05:58:07.465Z,958.43
2023-07-24T05:59:07.423Z,958.45
2023-07-24T06:00:07.437Z,958.58
2023-07-24T06:01:07.400Z,958.61
2023-07-24T06:02:07.372Z,958.44
2023-07-24T06:03:08.677Z,958.49
2023-07-24T06:04:07.351Z,958.57
2023-07-24T06:05:07.323Z,958.66
2023-07-24T06:06:07.270Z,958.62
2023-07-24T06:07:07.279Z,958.63
2023-07-24T06:08:07.217Z,958.60
2023-07-24T06:09:07.211Z,958.63
2023-07-24T06:10:07.186Z,958.65
2023-07-24T06:11:07.201Z,958.56
2023-07-24T06:12:07.180Z,958.80
2023-07-24T06:13:07.133Z,958.65
2023-07-24T06:14:07.112Z,958.54
2023-07-24T06:15:07.161Z,958.61
2023-07-24T06:16:07.103Z,958.47
2023-07-24T06:17:07.053Z,958.50
2023-07-24T06:18:07.095Z,958.54
2023-07-24T06:19:07.063Z,958.62
2023-07-24T06:20:07.034Z,958.56
2023-07-24T06:21:07.012Z,958.69
2023-07-24T06:22:06.969Z,958.58
2023-07-24T06:23:06.952Z,958.46
2023-07-24T06:24:06.924Z,958.42
2023-07-24T06:25:06.946Z,958.54
2023-07-24T06:26:06.920Z,958.49
2023-07-24T06:27:06.872Z,958.43
2023-07-24T06:28:06.857Z,958.34
2023-07-24T06:29:06.834Z,958.51
2023-07-24T06:30:14.959Z,958.58
2023-07-24T06:31:08.831Z,958.48
2023-07-24T06:32:06.796Z,958.41
2023-07-24T06:33:06.796Z,958.44
2023-07-24T06:34:06.778Z,958.50
2023-07-24T06:35:06.759Z,958.57
2023-07-24T06:36:06.708Z,958.50
2023-07-24T06:37:20.693Z,958.41
2023-07-24T06:38:08.684Z,958.53
2023-07-24T06:39:06.720Z,958.51
2023-07-24T06:40:06.672Z,958.43
2023-07-24T06:41:06.630Z,958.36
2023-07-24T06:42:06.609Z,958.37
2023-07-24T06:43:06.604Z,958.36
2023-07-24T06:44:06.613Z,958.42
2023-07-24T06:45:08.380Z,958.43
2023-07-24T06:46:07.593Z,958.36
2023-07-24T06:47:06.526Z,958.32
2023-07-24T06:48:06.550Z,958.34
2023-07-24T06:49:06.519Z,958.25
2023-07-24T06:50:06.482Z,958.31
2023-07-24T06:51:06.605Z,958.32
2023-07-24T06:52:06.444Z,958.31
2023-07-24T06:53:06.456Z,958.31
2023-07-24T06:54:06.409Z,958.27
2023-07-24T06:55:06.387Z,958.27
2023-07-24T06:56:06.375Z,958.18
2023-07-24T06:57:06.351Z,958.20
2023-07-24T06:58:06.376Z,958.24
2023-07-24T06:59:06.321Z,958.28
2023-07-24T07:00:06.316Z,958.29
2023-07-24T07:01:06.368Z,958.29
2023-07-24T07:02:06.368Z,958.21
2023-07-24T07:03:06.308Z,958.22
2023-07-24T07:04:06.240Z,958.13
2023-07-24T07:05:06.253Z,958.14
2023-07-24T07:06:06.203Z,958.04
2023-07-24T07:07:06.221Z,958.00
2023-07-24T07:08:06.169Z,958.04
2023-07-24T07:09:06.144Z,957.92
2023-07-24T07:10:06.135Z,957.98
2023-07-24T07:11:06.110Z,958.03
2023-07-24T07:12:06.125Z,958.04
2023-07-24T07:13:06.075Z,957.93
2023-07-24T07:14:06.054Z,957.99
2023-07-24T07:15:06.037Z,957.77
2023-07-24T07:16:06.067Z,957.92
2023-07-24T07:17:06.037Z,957.74
2023-07-24T07:18:06.023Z,958.03
2023-07-24T07:19:05.982Z,957.98
2023-07-24T07:20:05.959Z,957.88
2023-07-24T07:21:05.974Z,957.79
2023-07-24T07:22:05.930Z,957.87
2023-07-24T07:23:05.910Z,958.04
2023-07-24T07:24:05.885Z,958.02
2023-07-24T07:25:05.950Z,957.88
2023-07-24T07:26:05.884Z,957.91
2023-07-24T07:27:05.838Z,957.86
2023-07-24T07:28:05.811Z,957.83
2023-07-24T07:29:05.816Z,957.84
2023-07-24T07:30:05.840Z,957.90
2023-07-24T07:31:05.811Z,957.90
2023-07-24T07:32:05.771Z,957.72
2023-07-24T07:33:05.804Z,957.85
2023-07-24T07:34:05.724Z,957.83
2023-07-24T07:35:05.812Z,957.81
2023-07-24T07:36:05.688Z,957.78
2023-07-24T07:37:05.669Z,957.76
2023-07-24T07:38:05.656Z,957.82
2023-07-24T07:39:05.653Z,957.96
2023-07-24T07:40:05.650Z,957.84
2023-07-24T07:41:05.612Z,957.90
2023-07-24T07:42:16.303Z,957.70
2023-07-24T07:43:07.577Z,957.92
2023-07-24T07:44:05.585Z,957.95
2023-07-24T07:45:05.556Z,957.57
2023-07-24T07:46:05.527Z,957.82
2023-07-24T07:47:05.559Z,957.75
2023-07-24T07:48:05.519Z,957.92
2023-07-24T07:49:05.494Z,957.72
2023-07-24T07:50:05.449Z,957.99
2023-07-24T07:51:05.446Z,957.84
2023-07-24T07:52:05.412Z,957.90
2023-07-24T07:53:05.421Z,958.03
2023-07-24T07:54:05.418Z,957.97
2023-07-24T07:55:05.355Z,957.91
2023-07-24T07:56:05.341Z,957.86
2023-07-24T07:57:05.320Z,958.04
2023-07-24T07:58:05.336Z,958.03
2023-07-24T07:59:05.285Z,958.32
2023-07-24T08:00:05.316Z,958.18
2023-07-24T08:01:05.308Z,958.01
2023-07-24T08:02:05.239Z,958.12
2023-07-24T08:03:05.332Z,957.92
2023-07-24T08:04:05.194Z,958.02
2023-07-24T08:05:12.120Z,957.95
2023-07-24T08:06:07.182Z,958.07
2023-07-24T08:07:05.157Z,957.99
2023-07-24T08:08:05.159Z,958.07
2023-07-24T08:09:05.115Z,958.04
2023-07-24T08:10:05.088Z,958.12
2023-07-24T08:11:05.077Z,958.10
2023-07-24T08:12:07.127Z,958.17
2023-07-24T08:13:05.066Z,958.08
2023-07-24T08:14:05.023Z,958.11
2023-07-24T08:15:05.006Z,958.08
2023-07-24T08:16:04.982Z,958.10
2023-07-24T08:17:05.112Z,958.12
2023-07-24T08:18:05.052Z,957.98
2023-07-24T08:19:04.936Z,958.00
2023-07-24T08:20:04.936Z,958.09
2023-07-24T08:21:04.928Z,957.99
2023-07-24T08:22:04.916Z,957.96
2023-07-24T08:23:04.885Z,958.01
2023-07-24T08:24:04.855Z,958.01
2023-07-24T08:25:04.840Z,957.96
2023-07-24T08:26:04.881Z,957.91
2023-07-24T08:27:04.829Z,957.95
2023-07-24T08:28:06.336Z,957.97
2023-07-24T08:29:05.773Z,957.93
2023-07-24T08:30:04.768Z,957.89
2023-07-24T08:31:07.293Z,958.01
2023-07-24T08:32:05.820Z,957.99
2023-07-24T08:33:04.740Z,957.97
2023-07-24T08:34:04.688Z,958.01
2023-07-24T08:35:04.676Z,957.97
2023-07-24T08:36:04.677Z,957.96
2023-07-24T08:37:04.635Z,957.87
2023-07-24T08:38:04.628Z,957.74
2023-07-24T08:39:04.596Z,957.77
2023-07-24T08:40:04.603Z,957.81
2023-07-24T08:41:04.644Z,957.88
2023-07-24T08:42:04.588Z,957.88
2023-07-24T08:43:04.548Z,957.94
2023-07-24T08:44:04.552Z,957.89
2023-07-24T08:45:04.553Z,957.91
2023-07-24T08:46:04.482Z,957.95
2023-07-24T08:47:04.510Z,957.87
2023-07-24T08:48:04.499Z,957.99
2023-07-24T08:49:04.462Z,957.97
2023-07-24T08:50:04.441Z,957.88
2023-07-24T08:51:04.393Z,957.95
2023-07-24T08:52:04.372Z,957.88
2023-07-24T08:53:04.364Z,957.91
2023-07-24T08:54:04.365Z,957.91
2023-07-24T08:55:04.325Z,957.89
2023-07-24T08:56:04.309Z,957.89
2023-07-24T08:57:04.298Z,957.84
2023-07-24T08:58:04.272Z,957.87
2023-07-24T08:59:04.289Z,957.76
2023-07-24T09:00:04.228Z,957.82
2023-07-24T09:01:04.251Z,957.77
2023-07-24T09:02:04.202Z,957.70
2023-07-24T09:03:04.332Z,957.61
2023-07-24T09:04:04.266Z,957.72
2023-07-24T09:05:04.163Z,957.69
2023-07-24T09:06:04.222Z,957.73
2023-07-24T09:07:04.112Z,957.81
2023-07-24T09:08:04.127Z,957.75
2023-07-24T09:09:04.089Z,957.71
2023-07-24T09:10:04.062Z,957.78
2023-07-24T09:11:04.058Z,957.80
2023-07-24T09:12:04.037Z,957.58
2023-07-24T09:13:04.046Z,957.68
2023-07-24T09:15:06.238Z,957.69
2023-07-24T09:16:03.956Z,957.56
2023-07-24T09:17:04.060Z,957.74
2023-07-24T09:18:04.465Z,957.73
2023-07-24T09:19:11.309Z,957.62
2023-07-24T09:20:05.902Z,957.60
2023-07-24T09:21:03.876Z,957.64
2023-07-24T09:22:03.885Z,957.55
2023-07-24T09:23:15.319Z,957.63
2023-07-24T09:24:05.827Z,957.57
2023-07-24T09:25:03.806Z,957.66
2023-07-24T09:26:04.344Z,957.55
2023-07-24T09:27:03.813Z,957.53
2023-07-24T09:28:03.778Z,957.71
2023-07-24T09:29:03.731Z,957.62
2023-07-24T09:30:03.719Z,957.60
2023-07-24T09:31:03.886Z,957.52
2023-07-24T09:32:04.705Z,957.61
2023-07-24T09:33:03.736Z,957.58
2023-07-24T09:34:03.658Z,957.54
2023-07-24T09:35:05.493Z,957.52
2023-07-24T09:36:04.667Z,957.56
2023-07-24T09:37:03.588Z,957.49
2023-07-24T09:38:03.575Z,957.56
2023-07-24T09:39:03.553Z,957.58
2023-07-24T09:40:03.528Z,957.60
2023-07-24T09:41:03.543Z,957.69
2023-07-24T09:42:03.532Z,957.61
2023-07-24T09:43:30.172Z,957.58
2023-07-24T09:44:05.459Z,957.59
2023-07-24T09:45:03.478Z,957.53
2023-07-24T09:46:03.464Z,957.57
2023-07-24T09:47:27.370Z,957.57
2023-07-24T09:48:08.336Z,957.46
2023-07-24T09:50:04.402Z,957.52
2023-07-24T09:51:03.339Z,957.48
2023-07-24T09:52:03.315Z,957.51
2023-07-24T09:53:03.296Z,957.52
2023-07-24T09:54:03.283Z,957.47
2023-07-24T09:55:03.294Z,957.40
2023-07-24T09:56:03.251Z,957.47
2023-07-24T09:57:15.061Z,957.40
2023-07-24T09:58:05.197Z,957.41
2023-07-24T09:59:03.215Z,957.41
2023-07-24T10:00:03.269Z,957.31
2023-07-24T10:01:03.146Z,957.32
2023-07-24T10:02:03.171Z,957.32
2023-07-24T10:03:03.185Z,957.37
2023-07-24T10:04:03.142Z,957.29
2023-07-24T10:05:03.072Z,957.30
2023-07-24T10:06:03.049Z,957.36
2023-07-24T10:07:03.029Z,957.30
2023-07-24T10:08:03.045Z,957.35
2023-07-24T10:09:03.022Z,957.34
2023-07-24T10:10:02.978Z,957.28
2023-07-24T10:11:02.954Z,957.37
2023-07-24T10:12:02.937Z,957.38
2023-07-24T10:13:02.954Z,957.35
2023-07-24T10:14:02.910Z,957.33
2023-07-24T10:15:02.959Z,957.32
2023-07-24T10:16:02.895Z,957.30
2023-07-24T10:17:02.843Z,957.34
2023-07-24T10:18:02.934Z,957.38
2023-07-24T10:19:02.807Z,957.33
2023-07-24T10:20:02.789Z,957.35
2023-07-24T10:21:02.764Z,957.26
2023-07-24T10:22:02.748Z,957.23
2023-07-24T10:23:02.768Z,957.24
2023-07-24T10:24:02.714Z,957.13
2023-07-24T10:25:02.737Z,957.10
2023-07-24T10:26:02.676Z,957.13
2023-07-24T10:27:02.687Z,957.13
2023-07-24T10:28:02.669Z,957.03
2023-07-24T10:29:02.933Z,957.08
2023-07-24T10:30:06.878Z,957.06
2023-07-24T10:31:02.683Z,956.99
2023-07-24T10:32:02.733Z,957.07
2023-07-24T10:33:02.643Z,957.13
2023-07-24T10:34:02.581Z,957.13
2023-07-24T10:35:03.510Z,957.16
2023-07-24T10:36:02.496Z,957.20
2023-07-24T10:37:02.503Z,957.24
2023-07-24T10:38:02.461Z,957.15
2023-07-24T10:39:02.446Z,957.17
2023-07-24T10:40:02.419Z,957.21
2023-07-24T10:41:02.431Z,957.16
2023-07-24T10:42:02.417Z,957.12
2023-07-24T10:43:02.379Z,957.18
2023-07-24T10:44:02.346Z,957.24
2023-07-24T10:45:02.341Z,957.17
2023-07-24T10:46:02.411Z,957.20
2023-07-24T10:47:02.292Z,957.23
2023-07-24T10:48:02.311Z,957.25
2023-07-24T10:49:02.257Z,957.35
2023-07-24T10:50:02.244Z,957.24
2023-07-24T10:51:02.249Z,957.27
2023-07-24T10:52:02.201Z,957.32
2023-07-24T10:53:02.184Z,957.21
2023-07-24T10:54:02.162Z,957.25
2023-07-24T10:55:02.171Z,957.23
2023-07-24T10:56:02.155Z,957.15
2023-07-24T10:57:02.345Z,957.20
2023-07-24T10:58:02.864Z,957.15
2023-07-24T10:59:02.071Z,957.19
2023-07-24T11:00:02.081Z,957.19
2023-07-24T11:01:02.070Z,957.07
2023-07-24T11:02:02.029Z,957.20
2023-07-24T11:03:02.007Z,957.06
2023-07-24T11:04:01.989Z,957.14
2023-07-24T11:05:02.099Z,957.09
2023-07-24T11:06:01.939Z,957.14
2023-07-24T11:07:01.942Z,957.12
2023-07-24T11:08:01.906Z,957.15
2023-07-24T11:09:01.921Z,957.13
2023-07-24T11:10:01.898Z,957.26
2023-07-24T11:11:01.852Z,957.18
2023-07-24T11:12:01.834Z,957.17
2023-07-24T11:13:01.817Z,957.25
2023-07-24T11:14:01.831Z,957.32
2023-07-24T11:15:01.795Z,957.19
2023-07-24T11:16:01.830Z,957.16
2023-07-24T11:17:01.747Z,957.14
2023-07-24T11:18:01.771Z,957.15
2023-07-24T11:19:01.739Z,957.13
2023-07-24T11:20:01.685Z,957.14
2023-07-24T11:21:01.673Z,957.15
2023-07-24T11:22:01.644Z,957.13
2023-07-24T11:23:01.655Z,957.06
2023-07-24T11:24:01.639Z,957.08
2023-07-24T11:25:01.589Z,957.12
2023-07-24T11:26:01.572Z,957.04
2023-07-24T11:27:01.557Z,957.06
2023-07-24T11:28:01.568Z,957.02
2023-07-24T11:29:01.524Z,957.06
2023-07-24T11:30:01.501Z,957.04
2023-07-24T11:31:01.502Z,957.12
2023-07-24T11:32:01.468Z,957.05
2023-07-24T11:33:01.545Z,957.11
2023-07-24T11:34:01.426Z,957.03
2023-07-24T11:35:01.416Z,957.04
2023-07-24T11:36:01.425Z,957.01
2023-07-24T11:37:01.449Z,957.08
2023-07-24T11:38:01.391Z,957.07
2023-07-24T11:39:01.338Z,957.04
2023-07-24T11:40:01.324Z,957.03
2023-07-24T11:41:03.840Z,956.95
2023-07-24T11:42:01.328Z,956.83
2023-07-24T11:43:01.269Z,956.77
2023-07-24T11:44:01.264Z,956.75
2023-07-24T11:45:01.246Z,956.69
2023-07-24T11:46:01.212Z,956.68
2023-07-24T11:47:01.264Z,956.64
2023-07-24T11:48:01.247Z,956.55
2023-07-24T11:49:01.172Z,956.68
2023-07-24T11:50:01.240Z,956.61
2023-07-24T11:51:01.170Z,956.62
2023-07-24T11:52:01.149Z,956.61
2023-07-24T11:53:01.108Z,956.54
2023-07-24T11:54:01.091Z,956.45
2023-07-24T11:55:01.055Z,956.57
2023-07-24T11:56:01.070Z,956.55
2023-07-24T11:57:01.021Z,956.56
2023-07-24T11:58:01.009Z,956.56
2023-07-24T11:59:00.984Z,956.53
2023-07-24T12:00:00.965Z,956.52
2023-07-24T12:01:00.977Z,956.55
2023-07-24T12:02:00.967Z,956.56
2023-07-24T12:03:01.122Z,956.51
2023-07-24T12:04:00.931Z,956.60
2023-07-24T12:05:00.907Z,956.53
2023-07-24T12:06:00.895Z,956.55
2023-07-24T12:07:00.840Z,956.49
2023-07-24T12:08:04.591Z,956.45
2023-07-24T12:09:01.799Z,956.39
2023-07-24T12:10:00.809Z,956.29
2023-07-24T12:11:00.765Z,956.24
2023-07-24T12:12:00.749Z,956.24
2023-07-24T12:13:00.750Z,956.23
2023-07-24T12:14:00.710Z,956.22
2023-07-24T12:15:00.727Z,956.24
2023-07-24T12:16:00.690Z,956.27
2023-07-24T12:17:00.653Z,956.27
2023-07-24T12:18:00.657Z,956.20
2023-07-24T12:19:00.660Z,956.14
2023-07-24T12:20:00.663Z,956.21
2023-07-24T12:21:00.579Z,956.13
2023-07-24T12:22:00.579Z,956.11
2023-07-24T12:23:00.565Z,956.16
2023-07-24T12:24:00.574Z,956.19
2023-07-24T12:25:00.513Z,956.05
2023-07-24T12:26:00.500Z,956.05
2023-07-24T12:27:00.473Z,956.13
2023-07-24T12:28:00.451Z,956.10
2023-07-24T12:29:00.463Z,956.10
2023-07-24T12:30:00.435Z,956.10